Time;durP1;ratioP1;P1;durP2;ratioP2;P2;SDS_P1;SDS_P2;PMS_P1;PMS_P2;Temp;Humidity;BMP_temperature;BMP_pressure;BME280_temperature;BME280_humidity;BME280_pressure;Samples;Min_cycle;Max_cycle;Signal;HPM_P1;HPM_P2
2023/03/06 00:00:30;;;;;;;31.08;16.60;;;1.30;25.80;;;;;;5054196;28;20021;-51
2023/03/06 00:02:56;;;;;;;28.63;15.98;;;1.30;24.10;;;;;;5054311;28;20071;-53
2023/03/06 00:05:22;;;;;;;23.95;15.25;;;1.30;23.60;;;;;;5054114;28;20631;-52
2023/03/06 00:07:47;;;;;;;26.67;17.45;;;1.30;23.90;;;;;;5052985;28;20353;-54
2023/03/06 00:10:20;;;;;;;28.98;15.57;;;1.30;25.30;;;;;;5054288;28;20024;-52
2023/03/06 00:12:46;;;;;;;27.30;16.20;;;1.30;26.20;;;;;;5054153;28;20041;-51
2023/03/06 00:15:12;;;;;;;30.05;16.38;;;1.40;23.50;;;;;;5053950;28;20586;-51
2023/03/06 00:17:39;;;;;;;28.08;15.82;;;1.40;24.70;;;;;;5053947;28;20439;-51
2023/03/06 00:20:05;;;;;;;29.35;17.58;;;1.40;22.70;;;;;;5053798;28;20013;-54
2023/03/06 00:22:46;;;;;;;25.60;15.77;;;1.40;25.00;;;;;;5053708;28;20048;-53
2023/03/06 00:25:16;;;;;;;26.08;16.42;;;1.40;20.50;;;;;;5053769;28;20040;-52
2023/03/06 00:27:42;;;;;;;28.63;15.38;;;1.40;22.40;;;;;;5053750;28;20029;-51
2023/03/06 00:30:11;;;;;;;30.80;18.13;;;1.30;22.80;;;;;;5053823;28;20115;-52
2023/03/06 00:32:37;;;;;;;28.73;16.55;;;1.30;28.70;;;;;;5053376;28;20029;-54
2023/03/06 00:35:03;;;;;;;32.17;16.20;;;1.30;27.30;;;;;;5053770;28;20028;-52
2023/03/06 00:37:29;;;;;;;28.55;16.75;;;1.30;23.30;;;;;;5054021;28;20387;-52
2023/03/06 00:39:54;;;;;;;24.38;16.25;;;1.30;27.90;;;;;;5053408;28;20029;-52
2023/03/06 00:42:20;;;;;;;28.70;16.25;;;1.30;29.20;;;;;;5053487;28;20357;-54
2023/03/06 00:44:46;;;;;;;33.55;17.92;;;1.30;31.20;;;;;;5053585;28;20479;-52
2023/03/06 00:47:12;;;;;;;26.92;16.70;;;1.30;31.00;;;;;;5053610;28;20507;-52
2023/03/06 00:49:38;;;;;;;28.30;17.27;;;1.30;29.60;;;;;;5052237;28;20017;-52
2023/03/06 00:52:04;;;;;;;31.35;17.50;;;1.30;24.30;;;;;;5053423;28;20049;-53
2023/03/06 00:54:30;;;;;;;31.13;17.20;;;1.30;16.60;;;;;;5053226;28;20021;-52
2023/03/06 00:56:55;;;;;;;31.13;16.27;;;1.30;15.30;;;;;;5053209;28;20024;-51
2023/03/06 00:59:21;;;;;;;26.38;16.15;;;1.30;14.40;;;;;;5053207;28;20036;-52
2023/03/06 01:01:47;;;;;;;33.90;17.38;;;1.40;21.90;;;;;;5053178;28;20021;-54
2023/03/06 01:04:13;;;;;;;31.02;16.67;;;1.40;25.40;;;;;;5053215;28;20396;-53
2023/03/06 01:06:39;;;;;;;28.27;18.15;;;1.30;26.60;;;;;;5053066;28;20029;-53
2023/03/06 01:09:04;;;;;;;31.13;17.65;;;1.30;32.60;;;;;;5053052;28;20025;-55
2023/03/06 01:11:30;;;;;;;32.65;18.05;;;1.30;42.00;;;;;;5052658;28;20049;-53
2023/03/06 01:13:56;;;;;;;34.28;16.65;;;1.30;34.90;;;;;;5052826;28;20028;-51
2023/03/06 01:16:22;;;;;;;29.48;16.83;;;1.30;31.20;;;;;;5052242;28;20021;-53
2023/03/06 01:18:48;;;;;;;31.23;16.50;;;1.30;36.70;;;;;;5052998;28;20752;-53
2023/03/06 01:21:13;;;;;;;30.92;17.25;;;1.30;35.70;;;;;;5052903;28;20044;-53
2023/03/06 01:23:39;;;;;;;34.80;17.45;;;1.30;36.40;;;;;;5052602;28;20028;-52
2023/03/06 01:26:06;;;;;;;33.05;16.73;;;1.20;39.20;;;;;;5052701;28;20045;-54
2023/03/06 01:28:33;;;;;;;31.15;18.25;;;1.10;38.40;;;;;;5052441;28;20111;-52
2023/03/06 01:31:00;;;;;;;28.15;16.85;;;1.20;43.60;;;;;;5052595;28;20028;-54
2023/03/06 01:33:26;;;;;;;30.70;18.00;;;1.20;44.90;;;;;;5052440;28;20051;-54
2023/03/06 01:35:51;;;;;;;31.60;16.48;;;1.20;40.30;;;;;;5052692;28;20468;-53
2023/03/06 01:38:17;;;;;;;30.33;17.15;;;1.20;40.20;;;;;;5052635;28;20071;-51
2023/03/06 01:40:43;;;;;;;28.52;16.65;;;1.20;39.40;;;;;;5052356;28;20407;-55
2023/03/06 01:43:36;;;;;;;32.00;17.58;;;1.20;37.50;;;;;;5052453;28;20017;-52
2023/03/06 01:46:40;;;;;;;27.80;15.55;;;1.20;35.50;;;;;;5052512;28;20393;-48
2023/03/06 01:49:21;;;;;;;27.85;16.73;;;1.20;39.40;;;;;;5052380;28;20549;-51
2023/03/06 01:51:57;;;;;;;30.60;17.52;;;1.20;40.30;;;;;;5052053;28;20082;-53
2023/03/06 01:54:34;;;;;;;33.88;16.23;;;1.20;41.70;;;;;;5051913;28;20029;-52
2023/03/06 01:57:05;;;;;;;36.13;17.60;;;1.10;39.80;;;;;;5051932;28;20453;-52
2023/03/06 02:00:00;;;;;;;31.38;17.50;;;1.00;44.50;;;;;;5050522;28;20061;-53
2023/03/06 02:02:26;;;;;;;39.42;17.55;;;1.00;45.50;;;;;;5050117;28;20021;-54
2023/03/06 02:04:52;;;;;;;29.67;17.17;;;1.00;43.70;;;;;;5051491;28;20124;-52
2023/03/06 02:07:19;;;;;;;31.90;17.67;;;1.00;45.50;;;;;;5051544;28;20028;-53
2023/03/06 02:09:45;;;;;;;25.30;16.48;;;0.90;44.60;;;;;;5051656;28;20100;-51
2023/03/06 02:12:15;;;;;;;36.40;18.85;;;0.90;44.10;;;;;;5051651;28;20446;-52
2023/03/06 02:14:41;;;;;;;27.85;16.20;;;0.90;45.00;;;;;;5051410;28;20419;-56
2023/03/06 02:17:09;;;;;;;33.65;17.63;;;0.90;46.00;;;;;;5051642;28;20369;-53
2023/03/06 02:19:58;;;;;;;38.10;18.35;;;0.90;46.90;;;;;;5051488;28;20079;-52
2023/03/06 02:22:43;;;;;;;32.13;16.98;;;1.00;46.50;;;;;;5051540;28;20104;-52
2023/03/06 02:25:22;;;;;;;31.40;17.52;;;1.00;38.00;;;;;;5051754;28;20435;-52
2023/03/06 02:27:48;;;;;;;28.35;17.88;;;1.00;40.50;;;;;;5050908;28;20033;-52
2023/03/06 02:30:15;;;;;;;34.53;17.35;;;1.00;41.60;;;;;;5051746;28;20025;-51
2023/03/06 02:32:41;;;;;;;28.42;16.08;;;1.00;47.00;;;;;;5051472;28;20662;-52
2023/03/06 02:35:17;;;;;;;33.00;16.30;;;1.00;46.60;;;;;;5051462;28;20051;-53
2023/03/06 02:37:43;;;;;;;27.63;17.42;;;1.00;51.40;;;;;;5051566;28;20021;-53
2023/03/06 02:40:11;;;;;;;32.10;17.73;;;0.90;46.20;;;;;;5051704;28;20472;-52
2023/03/06 02:42:37;;;;;;;30.50;17.23;;;0.90;43.10;;;;;;5051242;28;20375;-53
2023/03/06 02:45:06;;;;;;;29.58;16.65;;;0.90;46.10;;;;;;5051281;28;20029;-54
2023/03/06 02:47:31;;;;;;;36.60;16.20;;;0.90;45.50;;;;;;5051330;28;20151;-55
2023/03/06 02:50:00;;;;;;;27.98;16.52;;;0.90;42.90;;;;;;5051438;28;20484;-53
2023/03/06 02:52:26;;;;;;;30.13;17.95;;;0.90;41.10;;;;;;5051256;28;20071;-52
2023/03/06 02:54:51;;;;;;;29.08;17.17;;;0.80;43.30;;;;;;5051412;28;20025;-55
2023/03/06 02:57:17;;;;;;;32.45;17.50;;;0.80;48.20;;;;;;5051371;28;20056;-54
2023/03/06 02:59:42;;;;;;;31.90;18.88;;;0.80;51.70;;;;;;5051138;28;20029;-52
2023/03/06 03:02:08;;;;;;;31.15;17.88;;;0.80;54.10;;;;;;5049691;28;20040;-52
2023/03/06 03:04:34;;;;;;;30.65;17.98;;;0.80;56.40;;;;;;5050451;28;20116;-53
2023/03/06 03:06:59;;;;;;;34.42;18.17;;;0.80;51.30;;;;;;5050838;28;20033;-54
2023/03/06 03:09:25;;;;;;;30.48;16.50;;;0.80;55.30;;;;;;5050954;28;20537;-53
2023/03/06 03:11:51;;;;;;;34.25;18.52;;;0.70;52.60;;;;;;5050848;28;20049;-51
2023/03/06 03:14:16;;;;;;;38.15;19.52;;;0.70;54.00;;;;;;5051036;28;20086;-54
2023/03/06 03:16:44;;;;;;;31.95;16.40;;;0.80;58.50;;;;;;5050981;28;20025;-53
2023/03/06 03:19:09;;;;;;;32.78;16.15;;;0.80;55.70;;;;;;5051056;28;20021;-53
2023/03/06 03:21:35;;;;;;;31.95;16.50;;;0.90;55.00;;;;;;5050933;28;20024;-53
2023/03/06 03:24:01;;;;;;;28.13;17.15;;;0.80;51.10;;;;;;5051156;28;20025;-52
2023/03/06 03:26:26;;;;;;;36.35;17.52;;;0.80;50.90;;;;;;5050991;28;20029;-52
2023/03/06 03:28:52;;;;;;;43.38;18.55;;;0.80;45.60;;;;;;5051084;28;20036;-53
2023/03/06 03:31:18;;;;;;;34.13;17.02;;;0.80;51.40;;;;;;5051014;28;20104;-53
2023/03/06 03:33:46;;;;;;;29.95;17.38;;;0.90;47.70;;;;;;5050603;28;20033;-54
2023/03/06 03:36:12;;;;;;;31.20;16.60;;;0.90;47.90;;;;;;5050844;28;20053;-52
2023/03/06 03:38:38;;;;;;;31.10;17.67;;;0.90;45.30;;;;;;5050726;28;20055;-51
2023/03/06 03:41:04;;;;;;;35.90;17.40;;;0.90;47.50;;;;;;5054104;28;20025;-51
2023/03/06 03:43:30;;;;;;;31.60;16.02;;;0.90;44.10;;;;;;5054555;28;20357;-53
2023/03/06 03:45:55;;;;;;;35.38;15.27;;;0.90;38.60;;;;;;5054669;28;20075;-55
2023/03/06 03:48:22;;;;;;;29.88;18.70;;;0.90;40.50;;;;;;5054624;28;20048;-53
2023/03/06 03:50:48;;;;;;;29.70;17.50;;;0.80;36.30;;;;;;5054246;28;20104;-52
2023/03/06 03:53:13;;;;;;;32.95;16.08;;;0.80;38.10;;;;;;5054514;28;20132;-53
2023/03/06 03:55:39;;;;;;;34.20;17.25;;;0.80;43.30;;;;;;5052988;28;20036;-54
2023/03/06 03:58:04;;;;;;;28.00;16.90;;;0.80;44.40;;;;;;5054432;28;20021;-52
2023/03/06 04:00:30;;;;;;;34.95;17.45;;;0.80;43.80;;;;;;5054220;28;20032;-53
2023/03/06 04:03:05;;;;;;;28.30;16.80;;;0.90;45.60;;;;;;5054122;28;20053;-52
2023/03/06 04:05:32;;;;;;;28.95;16.40;;;0.90;42.00;;;;;;5053729;28;20452;-54
2023/03/06 04:08:00;;;;;;;28.30;16.17;;;0.90;41.70;;;;;;5054142;28;20473;-52
2023/03/06 04:10:25;;;;;;;28.42;16.02;;;0.80;43.10;;;;;;5053554;28;20480;-53
2023/03/06 04:12:51;;;;;;;31.02;16.27;;;0.80;46.70;;;;;;5054026;28;20071;-53
2023/03/06 04:15:17;;;;;;;30.83;16.95;;;0.80;46.70;;;;;;5053833;28;20032;-53
2023/03/06 04:17:42;;;;;;;29.52;15.27;;;0.80;47.90;;;;;;5053835;28;20052;-53
2023/03/06 04:20:09;;;;;;;33.53;16.13;;;0.80;50.10;;;;;;5053486;28;20040;-52
2023/03/06 04:22:34;;;;;;;33.10;18.23;;;0.80;50.60;;;;;;5052156;28;20124;-54
2023/03/06 04:25:00;;;;;;;31.55;15.95;;;0.80;44.80;;;;;;5053822;28;20108;-51
2023/03/06 04:27:25;;;;;;;27.00;14.70;;;0.70;44.60;;;;;;5053850;28;20124;-52
2023/03/06 04:29:55;;;;;;;27.45;16.65;;;0.80;47.00;;;;;;5053803;28;20365;-51
2023/03/06 04:32:21;;;;;;;29.25;16.98;;;0.80;49.70;;;;;;5053486;28;20397;-52
2023/03/06 04:34:46;;;;;;;29.95;17.08;;;0.80;47.80;;;;;;5053620;28;20134;-54
2023/03/06 04:37:19;;;;;;;37.35;19.00;;;0.80;45.20;;;;;;5053801;28;20119;-54
2023/03/06 04:39:44;;;;;;;33.75;17.48;;;0.70;44.10;;;;;;5053555;28;20461;-53
2023/03/06 04:42:10;;;;;;;30.92;16.98;;;0.80;44.80;;;;;;5053363;28;20033;-52
2023/03/06 04:44:35;;;;;;;38.85;17.50;;;0.80;41.60;;;;;;5053049;28;20060;-54
2023/03/06 04:47:01;;;;;;;35.80;18.58;;;0.80;40.60;;;;;;5053472;28;20021;-52
2023/03/06 04:49:27;;;;;;;38.58;17.88;;;0.80;43.80;;;;;;5053303;28;20365;-54
2023/03/06 04:51:52;;;;;;;32.67;16.95;;;0.80;47.10;;;;;;5052575;28;20066;-52
2023/03/06 04:54:18;;;;;;;37.60;16.33;;;0.80;40.70;;;;;;5053390;28;20155;-52
2023/03/06 04:56:43;;;;;;;37.90;18.98;;;0.90;47.20;;;;;;5053167;28;20025;-51
2023/03/06 04:59:09;;;;;;;28.33;16.27;;;0.80;43.70;;;;;;5053130;28;20043;-52
2023/03/06 05:01:35;;;;;;;29.02;16.73;;;0.80;50.60;;;;;;5052846;28;20020;-52
2023/03/06 05:04:00;;;;;;;30.05;15.98;;;0.80;52.70;;;;;;5053157;28;20461;-52
2023/03/06 05:06:26;;;;;;;29.25;16.85;;;0.80;52.80;;;;;;5052687;28;20598;-53
2023/03/06 05:08:52;;;;;;;31.23;16.35;;;0.80;53.40;;;;;;5052887;28;20100;-52
2023/03/06 05:11:18;;;;;;;41.40;17.48;;;0.80;60.00;;;;;;5052738;28;20366;-53
2023/03/06 05:13:43;;;;;;;30.85;15.98;;;0.80;58.30;;;;;;5052648;28;20033;-53
2023/03/06 05:16:09;;;;;;;32.15;16.98;;;0.80;57.20;;;;;;5051284;28;20036;-52
2023/03/06 05:18:35;;;;;;;29.88;17.50;;;0.80;58.30;;;;;;5052643;28;20031;-53
2023/03/06 05:21:01;;;;;;;28.48;16.85;;;0.70;54.10;;;;;;5052872;28;20384;-52
2023/03/06 05:23:29;;;;;;;32.50;17.92;;;0.60;54.60;;;;;;5051357;28;20215;-54
2023/03/06 05:25:55;;;;;;;30.70;15.73;;;0.60;57.00;;;;;;5052764;28;20045;-53
2023/03/06 05:28:21;;;;;;;33.00;16.63;;;0.60;56.60;;;;;;5052485;28;20055;-52
2023/03/06 05:30:47;;;;;;;29.45;16.90;;;0.50;55.20;;;;;;5052676;28;20460;-51
2023/03/06 05:33:13;;;;;;;35.80;14.75;;;0.60;57.60;;;;;;5052583;28;20032;-52
2023/03/06 05:35:38;;;;;;;31.88;17.15;;;0.60;58.60;;;;;;5052259;28;20456;-51
2023/03/06 05:38:04;;;;;;;32.83;16.45;;;0.60;54.70;;;;;;5052574;28;20021;-52
2023/03/06 05:40:30;;;;;;;29.73;17.10;;;0.60;53.80;;;;;;5052320;28;20475;-53
2023/03/06 05:42:55;;;;;;;33.92;17.70;;;0.60;53.90;;;;;;5052295;28;20097;-51
2023/03/06 05:45:21;;;;;;;32.30;16.42;;;0.60;54.40;;;;;;5052195;28;20484;-52
2023/03/06 05:47:47;;;;;;;32.40;17.15;;;0.70;52.30;;;;;;5052273;28;20443;-52
2023/03/06 05:50:13;;;;;;;31.20;17.20;;;0.70;50.70;;;;;;5052390;28;20048;-53
2023/03/06 05:52:39;;;;;;;30.98;14.93;;;0.70;46.10;;;;;;5052154;28;20013;-53
2023/03/06 05:55:06;;;;;;;29.55;15.63;;;0.70;44.20;;;;;;5051963;28;20025;-55
2023/03/06 05:57:31;;;;;;;24.80;15.32;;;0.70;42.10;;;;;;5051904;28;20017;-55
2023/03/06 05:59:57;;;;;;;40.70;19.25;;;0.80;44.70;;;;;;5052034;28;20048;-54
2023/03/06 06:02:23;;;;;;;60.33;29.13;;;0.80;40.70;;;;;;5051809;28;20051;-52
2023/03/06 06:04:48;;;;;;;38.28;19.83;;;0.80;40.70;;;;;;5051873;28;20028;-51
2023/03/06 06:07:16;;;;;;;31.50;17.38;;;0.80;40.70;;;;;;5050336;28;20120;-52
2023/03/06 06:09:44;;;;;;;34.20;17.65;;;0.90;44.90;;;;;;5051468;28;20033;-51
2023/03/06 06:12:10;;;;;;;34.60;18.33;;;0.90;43.50;;;;;;5051089;28;20442;-53
2023/03/06 06:14:35;;;;;;;31.13;17.95;;;0.90;39.30;;;;;;5051404;28;20078;-55
2023/03/06 06:17:01;;;;;;;34.63;15.90;;;0.90;38.60;;;;;;5051436;28;20112;-52
2023/03/06 06:19:29;;;;;;;29.02;15.88;;;1.00;39.90;;;;;;5050967;28;20025;-51
2023/03/06 06:21:55;;;;;;;33.15;16.77;;;1.00;49.50;;;;;;5051123;28;20040;-52
2023/03/06 06:24:23;;;;;;;29.90;17.10;;;1.00;47.20;;;;;;5050802;28;20047;-54
2023/03/06 06:26:50;;;;;;;29.40;16.92;;;1.00;49.80;;;;;;5050064;28;20373;-52
2023/03/06 06:29:16;;;;;;;30.90;17.20;;;1.00;46.40;;;;;;5051360;28;20487;-52
2023/03/06 06:31:42;;;;;;;29.88;17.70;;;1.10;52.80;;;;;;5050920;28;20091;-52
2023/03/06 06:34:09;;;;;;;31.83;17.10;;;1.20;41.30;;;;;;5051091;28;20029;-52
2023/03/06 06:36:36;;;;;;;29.67;17.63;;;1.20;40.10;;;;;;5050624;28;20522;-52
2023/03/06 06:39:02;;;;;;;32.05;17.90;;;1.20;37.60;;;;;;5051097;28;20461;-51
2023/03/06 06:41:29;;;;;;;33.55;18.90;;;1.20;37.10;;;;;;5050603;28;20028;-51
2023/03/06 06:43:55;;;;;;;32.75;18.25;;;1.20;31.50;;;;;;5049495;28;20501;-52
2023/03/06 06:46:21;;;;;;;44.70;20.13;;;1.30;39.70;;;;;;5049668;28;20045;-51
2023/03/06 06:48:48;;;;;;;34.90;18.15;;;1.40;34.20;;;;;;5050750;28;20021;-53
2023/03/06 06:51:15;;;;;;;44.95;18.42;;;1.60;27.50;;;;;;5050954;28;20533;-52
2023/03/06 06:53:41;;;;;;;50.28;23.25;;;1.70;17.60;;;;;;5049728;28;20143;-52
2023/03/06 06:56:06;;;;;;;38.22;18.25;;;1.80;9.40;;;;;;5050386;28;20465;-52
2023/03/06 06:58:32;;;;;;;31.10;17.73;;;1.90;12.90;;;;;;5050141;28;20092;-51
2023/03/06 07:01:08;;;;;;;27.90;16.73;;;2.00;1.60;;;;;;5050657;28;20579;-52
2023/03/06 07:03:33;;;;;;;30.52;20.02;;;2.00;4.70;;;;;;5049992;28;20018;-51
2023/03/06 07:05:59;;;;;;;29.92;17.98;;;2.10;1.00;;;;;;5049959;28;20024;-52
2023/03/06 07:08:40;;;;;;;40.78;16.42;;;2.20;1.00;;;;;;5050769;28;20021;-51
2023/03/06 07:11:10;;;;;;;29.92;17.50;;;2.30;1.00;;;;;;5050676;28;20570;-51
2023/03/06 07:13:36;;;;;;;31.65;17.95;;;2.30;1.00;;;;;;5050943;28;20021;-52
2023/03/06 07:16:01;;;;;;;32.20;18.90;;;2.40;1.00;;;;;;5055171;28;20565;-50
2023/03/06 07:18:27;;;;;;;36.10;18.67;;;2.50;1.00;;;;;;5053767;28;20029;-52
2023/03/06 07:20:54;;;;;;;38.50;18.23;;;2.60;1.00;;;;;;5054847;28;20029;-56
2023/03/06 07:23:20;;;;;;;41.50;20.35;;;2.60;1.00;;;;;;5054947;28;20032;-53
2023/03/06 07:25:45;;;;;;;33.80;18.55;;;2.70;1.00;;;;;;5055163;28;20017;-53
2023/03/06 07:28:11;;;;;;;31.58;19.92;;;2.70;1.00;;;;;;5054781;28;20121;-51
2023/03/06 07:30:39;;;;;;;41.60;19.83;;;2.90;1.00;;;;;;5054942;28;20037;-51
2023/03/06 07:33:04;;;;;;;31.30;18.35;;;2.90;1.00;;;;;;5055001;28;20040;-52
2023/03/06 07:35:30;;;;;;;34.15;19.08;;;2.90;1.00;;;;;;5053445;28;20391;-51
2023/03/06 07:37:56;;;;;;;31.35;18.23;;;2.90;1.00;;;;;;5054833;28;20025;-50
2023/03/06 07:40:22;;;;;;;33.20;18.35;;;2.90;1.00;;;;;;5054528;28;20029;-52
2023/03/06 07:42:48;;;;;;;38.97;19.23;;;3.00;1.00;;;;;;5054672;28;20345;-55
2023/03/06 07:45:14;;;;;;;40.92;19.70;;;2.90;1.00;;;;;;5054789;28;20025;-51
2023/03/06 07:47:40;;;;;;;40.47;19.00;;;2.90;1.00;;;;;;5054498;28;20491;-53
2023/03/06 07:50:06;;;;;;;38.38;20.40;;;2.90;1.00;;;;;;5054577;28;20031;-51
2023/03/06 07:52:33;;;;;;;39.63;19.20;;;2.90;1.00;;;;;;5054449;28;20061;-52
2023/03/06 07:54:59;;;;;;;29.48;17.60;;;3.00;1.00;;;;;;5054333;28;20701;-52
2023/03/06 07:57:24;;;;;;;39.17;18.45;;;3.10;1.00;;;;;;5054285;28;20105;-51
2023/03/06 07:59:50;;;;;;;37.63;18.88;;;3.20;1.00;;;;;;5054500;28;20025;-52
2023/03/06 08:02:16;;;;;;;34.95;16.80;;;3.30;1.00;;;;;;5054384;28;20435;-51
2023/03/06 08:04:41;;;;;;;38.22;20.33;;;3.30;99.90;;;;;;5054073;28;20039;-51
2023/03/06 08:07:07;;;;;;;35.97;15.50;;;3.40;99.90;;;;;;5054341;28;20104;-52
2023/03/06 08:09:34;;;;;;;25.83;16.15;;;3.50;99.90;;;;;;5053783;28;20029;-53
2023/03/06 08:12:00;;;;;;;40.72;18.27;;;3.50;99.90;;;;;;5053794;28;20095;-52
2023/03/06 08:14:25;;;;;;;32.00;16.48;;;3.60;99.90;;;;;;5053614;28;20426;-52
2023/03/06 08:16:54;;;;;;;39.95;17.90;;;3.60;99.90;;;;;;5053477;28;20452;-53
2023/03/06 08:19:20;;;;;;;27.35;16.60;;;3.70;99.90;;;;;;5053777;28;20027;-51
2023/03/06 08:21:46;;;;;;;33.28;17.60;;;3.90;98.50;;;;;;5054024;28;20096;-53
2023/03/06 08:24:15;;;;;;;29.35;17.27;;;4.00;1.00;;;;;;5053326;28;20515;-52
2023/03/06 08:26:41;;;;;;;35.67;19.48;;;4.10;1.00;;;;;;5052216;28;20059;-51
2023/03/06 08:29:06;;;;;;;31.40;16.80;;;4.20;1.00;;;;;;5053658;28;20029;-52
2023/03/06 08:31:37;;;;;;;34.92;14.90;;;4.40;1.00;;;;;;5053162;28;20021;-54
2023/03/06 08:34:06;;;;;;;43.92;17.63;;;4.30;99.90;;;;;;5053368;28;20032;-54
2023/03/06 08:36:32;;;;;;;31.00;17.65;;;4.40;1.00;;;;;;5053677;28;20029;-54
2023/03/06 08:38:59;;;;;;;32.85;16.13;;;4.60;1.00;;;;;;5053698;28;20483;-55
2023/03/06 08:41:24;;;;;;;32.00;19.25;;;4.50;99.90;;;;;;5053282;28;20452;-51
2023/03/06 08:43:50;;;;;;;34.10;19.02;;;4.50;99.90;;;;;;5053503;28;20066;-52
2023/03/06 08:46:17;;;;;;;25.73;17.08;;;4.60;99.90;;;;;;5052169;28;20040;-51
2023/03/06 08:48:43;;;;;;;28.58;16.85;;;4.60;99.90;;;;;;5053557;28;20036;-52
2023/03/06 08:51:10;;;;;;;29.33;16.13;;;4.90;99.90;;;;;;5053346;28;20064;-52
2023/03/06 08:53:51;;;;;;;34.63;16.60;;;5.10;1.00;;;;;;5052364;28;20068;-53
2023/03/06 08:56:20;;;;;;;41.55;17.90;;;5.10;1.00;;;;;;5053303;28;20028;-54
2023/03/06 08:58:46;;;;;;;29.50;15.40;;;5.10;99.90;;;;;;5052937;28;20029;-52
2023/03/06 09:01:18;;;;;;;25.75;16.60;;;5.50;99.90;;;;;;5052757;28;20029;-51
2023/03/06 09:03:44;;;;;;;25.65;16.33;;;5.80;99.90;;;;;;5052826;28;20021;-51
2023/03/06 09:06:10;;;;;;;25.50;15.43;;;5.90;82.30;;;;;;5052684;28;20093;-52
2023/03/06 09:08:36;;;;;;;28.35;14.82;;;5.80;1.00;;;;;;5052136;28;20468;-51
2023/03/06 09:11:02;;;;;;;25.02;14.68;;;6.00;1.00;;;;;;5052265;28;20045;-52
2023/03/06 09:13:27;;;;;;;20.38;13.55;;;6.40;99.90;;;;;;5052416;28;20021;-51
2023/03/06 09:15:53;;;;;;;27.52;14.43;;;6.50;99.90;;;;;;5052295;28;20032;-52
2023/03/06 09:18:19;;;;;;;23.52;14.38;;;6.60;99.90;;;;;;5052831;28;20052;-52
2023/03/06 09:20:44;;;;;;;25.73;13.95;;;6.60;99.90;;;;;;5052801;28;20025;-52
2023/03/06 09:23:10;;;;;;;21.23;13.57;;;6.80;99.90;;;;;;5052468;28;20013;-53
2023/03/06 09:25:35;;;;;;;22.75;12.93;;;6.90;56.80;;;;;;5052321;28;20442;-52
2023/03/06 09:28:01;;;;;;;26.55;14.65;;;6.80;99.90;;;;;;5052556;28;20431;-51
2023/03/06 09:30:27;;;;;;;23.48;14.60;;;6.60;1.00;;;;;;5052303;28;20380;-52
2023/03/06 09:32:52;;;;;;;26.40;15.30;;;6.30;1.00;;;;;;5052578;28;20487;-53
2023/03/06 09:35:18;;;;;;;22.38;14.57;;;6.00;99.90;;;;;;5052328;28;20017;-51
2023/03/06 09:37:44;;;;;;;23.67;15.00;;;6.10;99.90;;;;;;5051281;28;20112;-54
2023/03/06 09:40:52;;;;;;;30.10;15.55;;;6.20;99.90;;;;;;5052214;28;20017;-52
2023/03/06 09:43:24;;;;;;;28.10;15.95;;;6.10;99.90;;;;;;5051496;28;20492;-52
2023/03/06 09:45:50;;;;;;;28.25;16.38;;;5.90;1.00;;;;;;5052065;28;20035;-52
2023/03/06 09:48:19;;;;;;;31.45;14.73;;;5.90;99.90;;;;;;5051803;28;20029;-54
2023/03/06 09:51:01;;;;;;;25.40;14.60;;;6.20;99.90;;;;;;5052175;28;20032;-55
2023/03/06 09:53:56;;;;;;;33.13;16.17;;;6.50;99.90;;;;;;5052085;28;20025;-53
2023/03/06 09:56:29;;;;;;;24.00;13.77;;;6.70;1.00;;;;;;5052164;28;20345;-52
2023/03/06 09:59:03;;;;;;;25.05;15.23;;;7.00;88.10;;;;;;5052281;28;20028;-51
2023/03/06 10:01:34;;;;;;;27.77;15.73;;;7.10;88.10;;;;;;5052039;28;20106;-51
2023/03/06 10:04:16;;;;;;;27.95;15.45;;;7.20;88.40;;;;;;5052208;28;20016;-52
2023/03/06 10:06:51;;;;;;;24.02;14.52;;;7.30;88.70;;;;;;5051811;28;20651;-52
2023/03/06 10:13:03;;;;;;;32.50;15.45;;;7.60;88.60;;;;;;5050032;28;20056;-51
2023/03/06 10:15:34;;;;;;;25.50;14.90;;;7.80;86.80;;;;;;5051025;28;20444;-51
2023/03/06 10:18:02;;;;;;;27.17;15.23;;;7.80;86.10;;;;;;5051500;28;20051;-54
2023/03/06 10:20:35;;;;;;;24.63;14.85;;;8.10;85.00;;;;;;5051717;28;20021;-54
2023/03/06 10:23:04;;;;;;;;;;;8.20;84.60;;;;;;5051381;28;20112;-51
2023/03/06 10:25:37;;;;;;;25.33;14.38;;;8.20;84.40;;;;;;5051304;28;19955;-52
2023/03/06 10:28:35;;;;;;;28.55;14.57;;;8.40;82.70;;;;;;5051123;28;20456;-51
2023/03/06 10:31:15;;;;;;;27.27;15.95;;;8.30;83.00;;;;;;5051143;28;20037;-52
2023/03/06 10:33:46;;;;;;;25.15;15.55;;;8.30;82.20;;;;;;5051262;28;20036;-54
2023/03/06 10:36:15;;;;;;;27.42;15.77;;;8.30;83.80;;;;;;5051055;28;20025;-51
2023/03/06 10:38:43;;;;;;;26.98;15.20;;;8.70;82.50;;;;;;5051134;28;20465;-55
2023/03/06 10:41:11;;;;;;;39.17;19.75;;;8.90;81.60;;;;;;5051415;28;20021;-54
2023/03/06 10:43:38;;;;;;;29.55;15.73;;;9.10;77.30;;;;;;5051259;28;20031;-51
2023/03/06 10:46:05;;;;;;;26.88;17.15;;;9.80;77.10;;;;;;5050543;28;20032;-51
2023/03/06 10:48:34;;;;;;;28.13;16.83;;;10.10;76.80;;;;;;5049676;28;20033;-50
2023/03/06 10:51:22;;;;;;;34.58;16.30;;;9.30;75.90;;;;;;5050900;28;20380;-53
2023/03/06 10:54:17;;;;;;;26.80;16.65;;;9.60;76.10;;;;;;5051003;28;20021;-50
2023/03/06 10:56:45;;;;;;;29.20;17.35;;;8.10;75.80;;;;;;5051240;28;20368;-50
2023/03/06 10:59:10;;;;;;;29.35;16.10;;;8.10;77.30;;;;;;5050829;28;20028;-51
2023/03/06 11:01:37;;;;;;;28.52;16.63;;;8.20;78.00;;;;;;5050731;28;20578;-53
2023/03/06 11:04:30;;;;;;;31.23;18.98;;;9.10;80.00;;;;;;5050781;28;20032;-51
2023/03/06 11:07:18;;;;;;;27.48;12.90;;;9.30;74.60;;;;;;5050810;28;20036;-53
2023/03/06 11:09:55;;;;;;;30.02;16.25;;;8.90;72.10;;;;;;5050615;28;20087;-51
2023/03/06 11:12:32;;;;;;;29.95;18.05;;;8.00;74.40;;;;;;5050783;28;20048;-56
2023/03/06 11:15:13;;;;;;;33.83;16.10;;;7.70;76.70;;;;;;5050657;28;20616;-53
2023/03/06 11:18:06;;;;;;;26.35;14.75;;;7.20;78.10;;;;;;5050848;28;20021;-52
2023/03/06 11:20:45;;;;;;;26.30;16.23;;;7.00;79.00;;;;;;5050682;28;20325;-52
2023/03/06 11:23:42;;;;;;;24.20;13.65;;;6.80;78.50;;;;;;5051214;28;20037;-52
2023/03/06 11:26:18;;;;;;;25.77;13.93;;;6.70;80.20;;;;;;5050683;28;20040;-54
2023/03/06 11:29:21;;;;;;;25.45;13.88;;;6.40;80.60;;;;;;5050759;28;20024;-52
2023/03/06 11:31:51;;;;;;;22.27;13.05;;;6.40;81.30;;;;;;5027032;28;20104;-52
2023/03/06 11:34:38;;;;;;;28.17;14.48;;;6.60;82.00;;;;;;5019911;28;20377;-53
2023/03/06 11:37:10;;;;;;;26.58;13.05;;;6.60;81.20;;;;;;5018949;28;20037;-55
2023/03/06 11:40:05;;;;;;;29.08;14.00;;;6.80;82.50;;;;;;5019206;28;20083;-52
2023/03/06 11:42:57;;;;;;;28.02;13.32;;;6.60;82.90;;;;;;5020144;28;20040;-52
2023/03/06 11:45:25;;;;;;;25.48;14.70;;;6.90;80.80;;;;;;5020302;28;20026;-56
2023/03/06 11:48:08;;;;;;;26.50;16.10;;;7.40;81.40;;;;;;5020162;28;20029;-53
2023/03/06 11:50:37;;;;;;;28.30;15.67;;;7.30;79.10;;;;;;5019684;28;20026;-51
2023/03/06 11:53:11;;;;;;;30.10;17.15;;;7.20;78.60;;;;;;5018689;28;20029;-52
2023/03/06 11:55:58;;;;;;;33.40;15.68;;;7.50;78.70;;;;;;5019281;28;20114;-54
2023/03/06 11:59:01;;;;;;;28.90;15.25;;;7.80;80.80;;;;;;5021778;28;20041;-52
2023/03/06 12:01:39;;;;;;;26.48;15.20;;;7.70;77.30;;;;;;5023639;28;20423;-55
2023/03/06 12:04:33;;;;;;;39.60;20.48;;;7.40;76.80;;;;;;5023447;28;20034;-53
2023/03/06 12:07:05;;;;;;;24.57;14.90;;;7.80;78.10;;;;;;5024390;28;20041;-51
2023/03/06 12:10:08;;;;;;;33.67;16.33;;;7.60;75.20;;;;;;5021591;28;20036;-52
2023/03/06 12:12:53;;;;;;;24.27;12.52;;;7.00;76.70;;;;;;5023268;28;20049;-52
2023/03/06 12:15:43;;;;;;;25.23;15.98;;;6.80;77.30;;;;;;5023109;28;20060;-51
2023/03/06 12:18:33;;;;;;;25.30;15.07;;;6.60;78.50;;;;;;5022905;28;20071;-51
2023/03/06 12:21:09;;;;;;;22.83;13.93;;;6.40;78.20;;;;;;5023286;28;20338;-52
2023/03/06 12:24:08;;;;;;;25.00;14.38;;;6.30;78.50;;;;;;5023083;28;20176;-52
2023/03/06 12:27:04;;;;;;;22.60;13.35;;;6.20;77.60;;;;;;5022880;28;20037;-51
2023/03/06 12:29:46;;;;;;;29.77;14.85;;;6.50;78.40;;;;;;5022438;28;20060;-51
2023/03/06 12:32:19;;;;;;;34.70;13.90;;;6.50;77.60;;;;;;5023279;28;20048;-51
2023/03/06 12:34:51;;;;;;;24.23;14.27;;;6.20;79.20;;;;;;5023172;28;20044;-54
2023/03/06 12:37:17;;;;;;;31.27;15.90;;;6.20;80.40;;;;;;5023416;28;20032;-52
2023/03/06 12:40:08;;;;;;;20.08;12.88;;;6.10;78.40;;;;;;5021539;28;20108;-51
2023/03/06 12:43:04;;;;;;;76.72;29.80;;;6.20;79.50;;;;;;5022509;28;20035;-52
2023/03/06 12:45:35;;;;;;;113.75;36.97;;;6.30;80.50;;;;;;5022729;28;20029;-52
2023/03/06 12:48:02;;;;;;;45.30;22.60;;;6.50;79.10;;;;;;5022520;28;20029;-54
2023/03/06 12:50:31;;;;;;;70.88;36.95;;;6.50;78.80;;;;;;5023027;28;20037;-51
2023/03/06 12:53:07;;;;;;;26.75;14.75;;;6.70;78.90;;;;;;5023308;28;20412;-52
2023/03/06 12:55:45;;;;;;;22.67;13.75;;;7.20;78.40;;;;;;5022466;28;20040;-55